sensor_id;sensor_type;location;lat;lon;timestamp;P1;durP1;ratioP1;P2;durP2;ratioP2
59728;SDS011;45588;51.598;5.618;2023-07-13T00:01:03;8.25;;;1.95;;
59728;SDS011;45588;51.598;5.618;2023-07-13T00:03:29;9.07;;;2.50;;
59728;SDS011;45588;51.598;5.618;2023-07-13T00:06:00;6.22;;;2.30;;
59728;SDS011;45588;51.598;5.618;2023-07-13T00:08:25;4.10;;;1.70;;
59728;SDS011;45588;51.598;5.618;2023-07-13T00:10:51;5.53;;;2.05;;
59728;SDS011;45588;51.598;5.618;2023-07-13T00:13:19;7.07;;;1.83;;
59728;SDS011;45588;51.598;5.618;2023-07-13T00:15:44;8.25;;;2.20;;
59728;SDS011;45588;51.598;5.618;2023-07-13T00:18:09;6.53;;;2.10;;
59728;SDS011;45588;51.598;5.618;2023-07-13T00:20:35;8.60;;;2.17;;
59728;SDS011;45588;51.598;5.618;2023-07-13T00:23:00;9.75;;;2.55;;
59728;SDS011;45588;51.598;5.618;2023-07-13T00:25:25;7.90;;;2.13;;
59728;SDS011;45588;51.598;5.618;2023-07-13T00:27:53;11.85;;;2.78;;
59728;SDS011;45588;51.598;5.618;2023-07-13T00:30:18;7.57;;;2.15;;
59728;SDS011;45588;51.598;5.618;2023-07-13T00:32:44;6.82;;;1.70;;
59728;SDS011;45588;51.598;5.618;2023-07-13T00:35:09;3.33;;;2.33;;
59728;SDS011;45588;51.598;5.618;2023-07-13T00:37:34;6.90;;;1.80;;
59728;SDS011;45588;51.598;5.618;2023-07-13T00:40:01;7.07;;;1.58;;
59728;SDS011;45588;51.598;5.618;2023-07-13T00:42:27;8.48;;;2.08;;
59728;SDS011;45588;51.598;5.618;2023-07-13T00:47:30;4.60;;;2.30;;
59728;SDS011;45588;51.598;5.618;2023-07-13T00:49:56;5.38;;;2.03;;
59728;SDS011;45588;51.598;5.618;2023-07-13T00:52:21;5.88;;;2.83;;
59728;SDS011;45588;51.598;5.618;2023-07-13T00:54:46;7.07;;;2.00;;
59728;SDS011;45588;51.598;5.618;2023-07-13T00:57:15;5.88;;;2.25;;
59728;SDS011;45588;51.598;5.618;2023-07-13T00:59:42;8.52;;;4.18;;
59728;SDS011;45588;51.598;5.618;2023-07-13T01:02:08;6.35;;;2.22;;
59728;SDS011;45588;51.598;5.618;2023-07-13T01:04:33;5.75;;;2.22;;
59728;SDS011;45588;51.598;5.618;2023-07-13T01:06:58;9.40;;;2.88;;
59728;SDS011;45588;51.598;5.618;2023-07-13T01:09:25;5.25;;;2.08;;
59728;SDS011;45588;51.598;5.618;2023-07-13T01:11:51;10.70;;;2.17;;
59728;SDS011;45588;51.598;5.618;2023-07-13T01:14:16;10.10;;;2.35;;
59728;SDS011;45588;51.598;5.618;2023-07-13T01:16:42;5.28;;;2.00;;
59728;SDS011;45588;51.598;5.618;2023-07-13T01:19:13;5.10;;;1.80;;
59728;SDS011;45588;51.598;5.618;2023-07-13T01:21:40;10.55;;;3.40;;
59728;SDS011;45588;51.598;5.618;2023-07-13T01:24:08;6.80;;;2.67;;
59728;SDS011;45588;51.598;5.618;2023-07-13T01:26:33;3.72;;;1.73;;
59728;SDS011;45588;51.598;5.618;2023-07-13T01:28:58;6.03;;;2.45;;
59728;SDS011;45588;51.598;5.618;2023-07-13T01:31:24;8.75;;;2.60;;
59728;SDS011;45588;51.598;5.618;2023-07-13T01:33:49;12.70;;;2.55;;
59728;SDS011;45588;51.598;5.618;2023-07-13T01:36:14;3.55;;;1.80;;
59728;SDS011;45588;51.598;5.618;2023-07-13T01:38:39;7.32;;;2.15;;
59728;SDS011;45588;51.598;5.618;2023-07-13T01:41:05;7.63;;;2.45;;
59728;SDS011;45588;51.598;5.618;2023-07-13T01:43:30;4.75;;;2.72;;
59728;SDS011;45588;51.598;5.618;2023-07-13T01:45:55;5.60;;;2.30;;
59728;SDS011;45588;51.598;5.618;2023-07-13T01:48:21;6.82;;;2.80;;
59728;SDS011;45588;51.598;5.618;2023-07-13T01:50:47;5.25;;;2.80;;
59728;SDS011;45588;51.598;5.618;2023-07-13T01:53:12;8.55;;;1.95;;
59728;SDS011;45588;51.598;5.618;2023-07-13T01:55:37;6.30;;;1.92;;
59728;SDS011;45588;51.598;5.618;2023-07-13T01:58:03;5.53;;;2.05;;
59728;SDS011;45588;51.598;5.618;2023-07-13T02:00:29;6.45;;;3.15;;
59728;SDS011;45588;51.598;5.618;2023-07-13T02:02:54;9.25;;;2.83;;
59728;SDS011;45588;51.598;5.618;2023-07-13T02:05:19;6.57;;;2.33;;
59728;SDS011;45588;51.598;5.618;2023-07-13T02:07:44;11.35;;;4.00;;
59728;SDS011;45588;51.598;5.618;2023-07-13T02:10:10;8.18;;;2.22;;
59728;SDS011;45588;51.598;5.618;2023-07-13T02:12:36;6.45;;;2.30;;
59728;SDS011;45588;51.598;5.618;2023-07-13T02:15:01;4.55;;;2.30;;
59728;SDS011;45588;51.598;5.618;2023-07-13T02:17:27;8.45;;;2.05;;
59728;SDS011;45588;51.598;5.618;2023-07-13T02:19:52;8.13;;;2.63;;
59728;SDS011;45588;51.598;5.618;2023-07-13T02:22:18;13.48;;;2.55;;
59728;SDS011;45588;51.598;5.618;2023-07-13T02:24:43;8.02;;;2.35;;
59728;SDS011;45588;51.598;5.618;2023-07-13T02:27:08;11.48;;;2.83;;
59728;SDS011;45588;51.598;5.618;2023-07-13T02:29:33;4.60;;;2.58;;
59728;SDS011;45588;51.598;5.618;2023-07-13T02:31:59;4.60;;;2.25;;
59728;SDS011;45588;51.598;5.618;2023-07-13T02:34:24;8.70;;;3.25;;
59728;SDS011;45588;51.598;5.618;2023-07-13T02:36:49;8.07;;;2.40;;
59728;SDS011;45588;51.598;5.618;2023-07-13T02:39:14;7.82;;;2.50;;
59728;SDS011;45588;51.598;5.618;2023-07-13T02:41:40;7.72;;;2.28;;
59728;SDS011;45588;51.598;5.618;2023-07-13T02:44:05;4.32;;;3.17;;
59728;SDS011;45588;51.598;5.618;2023-07-13T02:46:33;8.05;;;4.28;;
59728;SDS011;45588;51.598;5.618;2023-07-13T02:48:58;11.02;;;2.60;;
59728;SDS011;45588;51.598;5.618;2023-07-13T02:51:23;6.65;;;2.85;;
59728;SDS011;45588;51.598;5.618;2023-07-13T02:53:48;7.07;;;2.67;;
59728;SDS011;45588;51.598;5.618;2023-07-13T02:56:14;7.65;;;2.40;;
59728;SDS011;45588;51.598;5.618;2023-07-13T02:58:39;9.57;;;4.75;;
59728;SDS011;45588;51.598;5.618;2023-07-13T03:01:08;5.53;;;2.67;;
59728;SDS011;45588;51.598;5.618;2023-07-13T03:03:34;6.50;;;2.20;;
59728;SDS011;45588;51.598;5.618;2023-07-13T03:06:00;12.80;;;2.95;;
59728;SDS011;45588;51.598;5.618;2023-07-13T03:08:27;5.32;;;2.42;;
59728;SDS011;45588;51.598;5.618;2023-07-13T03:10:59;13.18;;;4.07;;
59728;SDS011;45588;51.598;5.618;2023-07-13T03:13:24;13.65;;;2.38;;
59728;SDS011;45588;51.598;5.618;2023-07-13T03:15:49;8.07;;;2.15;;
59728;SDS011;45588;51.598;5.618;2023-07-13T03:18:15;8.55;;;2.58;;
59728;SDS011;45588;51.598;5.618;2023-07-13T03:20:40;10.57;;;2.65;;
59728;SDS011;45588;51.598;5.618;2023-07-13T03:23:05;11.13;;;4.13;;
59728;SDS011;45588;51.598;5.618;2023-07-13T03:25:30;7.82;;;2.25;;
59728;SDS011;45588;51.598;5.618;2023-07-13T03:27:55;7.43;;;2.55;;
59728;SDS011;45588;51.598;5.618;2023-07-13T03:30:21;5.10;;;2.13;;
59728;SDS011;45588;51.598;5.618;2023-07-13T03:32:46;8.50;;;3.13;;
59728;SDS011;45588;51.598;5.618;2023-07-13T03:35:11;9.30;;;2.63;;
59728;SDS011;45588;51.598;5.618;2023-07-13T03:37:36;9.63;;;3.08;;
59728;SDS011;45588;51.598;5.618;2023-07-13T03:40:07;11.20;;;3.00;;
59728;SDS011;45588;51.598;5.618;2023-07-13T03:42:34;11.07;;;2.65;;
59728;SDS011;45588;51.598;5.618;2023-07-13T03:44:59;10.98;;;3.50;;
59728;SDS011;45588;51.598;5.618;2023-07-13T03:47:24;15.63;;;2.88;;
59728;SDS011;45588;51.598;5.618;2023-07-13T03:49:50;11.25;;;3.40;;
59728;SDS011;45588;51.598;5.618;2023-07-13T03:52:15;9.13;;;3.22;;
59728;SDS011;45588;51.598;5.618;2023-07-13T03:54:40;9.30;;;2.95;;
59728;SDS011;45588;51.598;5.618;2023-07-13T03:57:05;17.00;;;3.08;;
59728;SDS011;45588;51.598;5.618;2023-07-13T03:59:31;9.25;;;3.55;;
59728;SDS011;45588;51.598;5.618;2023-07-13T04:01:56;5.88;;;2.90;;
59728;SDS011;45588;51.598;5.618;2023-07-13T04:04:21;4.50;;;2.70;;
59728;SDS011;45588;51.598;5.618;2023-07-13T04:06:47;10.30;;;2.67;;
59728;SDS011;45588;51.598;5.618;2023-07-13T04:09:12;9.18;;;3.08;;
59728;SDS011;45588;51.598;5.618;2023-07-13T04:11:37;7.07;;;2.47;;
59728;SDS011;45588;51.598;5.618;2023-07-13T04:14:03;8.73;;;2.70;;
59728;SDS011;45588;51.598;5.618;2023-07-13T04:16:28;12.95;;;3.38;;
59728;SDS011;45588;51.598;5.618;2023-07-13T04:18:53;6.78;;;2.63;;
59728;SDS011;45588;51.598;5.618;2023-07-13T04:21:19;9.32;;;2.63;;
59728;SDS011;45588;51.598;5.618;2023-07-13T04:23:45;6.28;;;3.85;;
59728;SDS011;45588;51.598;5.618;2023-07-13T04:26:10;12.02;;;5.20;;
59728;SDS011;45588;51.598;5.618;2023-07-13T04:28:35;7.13;;;3.15;;
59728;SDS011;45588;51.598;5.618;2023-07-13T04:31:01;7.63;;;3.38;;
59728;SDS011;45588;51.598;5.618;2023-07-13T04:33:26;8.00;;;2.83;;
59728;SDS011;45588;51.598;5.618;2023-07-13T04:35:53;8.57;;;3.30;;
59728;SDS011;45588;51.598;5.618;2023-07-13T04:38:19;10.30;;;3.22;;
59728;SDS011;45588;51.598;5.618;2023-07-13T04:40:45;13.43;;;3.30;;
59728;SDS011;45588;51.598;5.618;2023-07-13T04:43:10;8.68;;;3.25;;
59728;SDS011;45588;51.598;5.618;2023-07-13T04:45:36;13.95;;;3.97;;
59728;SDS011;45588;51.598;5.618;2023-07-13T04:48:01;10.15;;;4.35;;
59728;SDS011;45588;51.598;5.618;2023-07-13T04:50:26;10.00;;;3.80;;
59728;SDS011;45588;51.598;5.618;2023-07-13T04:52:51;17.50;;;4.88;;
59728;SDS011;45588;51.598;5.618;2023-07-13T04:55:17;17.58;;;5.55;;
59728;SDS011;45588;51.598;5.618;2023-07-13T04:57:43;16.17;;;6.03;;
59728;SDS011;45588;51.598;5.618;2023-07-13T05:00:08;16.00;;;5.78;;
59728;SDS011;45588;51.598;5.618;2023-07-13T05:02:34;19.05;;;6.70;;
59728;SDS011;45588;51.598;5.618;2023-07-13T05:05:00;21.15;;;9.30;;
59728;SDS011;45588;51.598;5.618;2023-07-13T05:07:25;23.10;;;8.52;;
59728;SDS011;45588;51.598;5.618;2023-07-13T05:09:51;20.00;;;7.47;;
59728;SDS011;45588;51.598;5.618;2023-07-13T05:12:16;26.77;;;14.38;;
59728;SDS011;45588;51.598;5.618;2023-07-13T05:14:42;32.08;;;14.60;;
59728;SDS011;45588;51.598;5.618;2023-07-13T05:17:07;19.52;;;9.05;;
59728;SDS011;45588;51.598;5.618;2023-07-13T05:19:32;34.72;;;9.63;;
59728;SDS011;45588;51.598;5.618;2023-07-13T05:21:57;21.65;;;8.35;;
59728;SDS011;45588;51.598;5.618;2023-07-13T05:24:23;21.35;;;7.97;;
59728;SDS011;45588;51.598;5.618;2023-07-13T05:26:48;24.95;;;11.65;;
59728;SDS011;45588;51.598;5.618;2023-07-13T05:29:13;30.92;;;17.23;;
59728;SDS011;45588;51.598;5.618;2023-07-13T05:31:38;30.48;;;17.38;;
59728;SDS011;45588;51.598;5.618;2023-07-13T05:34:04;30.15;;;17.08;;
59728;SDS011;45588;51.598;5.618;2023-07-13T05:36:29;31.88;;;11.70;;
59728;SDS011;45588;51.598;5.618;2023-07-13T05:38:54;25.25;;;10.68;;
59728;SDS011;45588;51.598;5.618;2023-07-13T05:41:20;27.48;;;10.80;;
59728;SDS011;45588;51.598;5.618;2023-07-13T05:43:45;27.17;;;11.57;;
59728;SDS011;45588;51.598;5.618;2023-07-13T05:46:10;38.00;;;19.30;;
59728;SDS011;45588;51.598;5.618;2023-07-13T05:48:36;31.70;;;18.92;;
59728;SDS011;45588;51.598;5.618;2023-07-13T05:51:01;26.27;;;10.73;;
59728;SDS011;45588;51.598;5.618;2023-07-13T05:53:27;26.25;;;10.45;;
59728;SDS011;45588;51.598;5.618;2023-07-13T05:55:53;27.13;;;10.02;;
59728;SDS011;45588;51.598;5.618;2023-07-13T05:58:19;23.40;;;9.45;;
59728;SDS011;45588;51.598;5.618;2023-07-13T06:00:45;26.90;;;10.15;;
59728;SDS011;45588;51.598;5.618;2023-07-13T06:03:10;24.85;;;10.18;;
59728;SDS011;45588;51.598;5.618;2023-07-13T06:05:35;28.20;;;10.98;;
59728;SDS011;45588;51.598;5.618;2023-07-13T06:08:01;26.98;;;16.90;;
59728;SDS011;45588;51.598;5.618;2023-07-13T06:10:27;30.88;;;14.43;;
59728;SDS011;45588;51.598;5.618;2023-07-13T06:12:52;20.88;;;10.35;;
59728;SDS011;45588;51.598;5.618;2023-07-13T06:15:17;21.05;;;9.43;;
59728;SDS011;45588;51.598;5.618;2023-07-13T06:17:42;24.85;;;10.25;;
59728;SDS011;45588;51.598;5.618;2023-07-13T06:20:08;33.85;;;18.30;;
59728;SDS011;45588;51.598;5.618;2023-07-13T06:22:34;27.02;;;10.68;;
59728;SDS011;45588;51.598;5.618;2023-07-13T06:24:59;30.90;;;19.15;;
59728;SDS011;45588;51.598;5.618;2023-07-13T06:27:24;25.93;;;13.63;;
59728;SDS011;45588;51.598;5.618;2023-07-13T06:29:50;29.60;;;12.25;;
59728;SDS011;45588;51.598;5.618;2023-07-13T06:32:15;25.48;;;10.07;;
59728;SDS011;45588;51.598;5.618;2023-07-13T06:34:40;26.58;;;11.20;;
59728;SDS011;45588;51.598;5.618;2023-07-13T06:37:05;23.15;;;11.48;;
59728;SDS011;45588;51.598;5.618;2023-07-13T06:39:31;28.30;;;17.92;;
59728;SDS011;45588;51.598;5.618;2023-07-13T06:41:56;26.05;;;14.07;;
59728;SDS011;45588;51.598;5.618;2023-07-13T06:44:21;21.73;;;10.23;;
59728;SDS011;45588;51.598;5.618;2023-07-13T06:46:46;31.00;;;11.45;;
59728;SDS011;45588;51.598;5.618;2023-07-13T06:49:12;26.42;;;17.77;;
59728;SDS011;45588;51.598;5.618;2023-07-13T06:51:37;29.80;;;17.05;;
59728;SDS011;45588;51.598;5.618;2023-07-13T06:54:02;34.47;;;17.83;;
59728;SDS011;45588;51.598;5.618;2023-07-13T06:56:28;26.38;;;13.70;;
59728;SDS011;45588;51.598;5.618;2023-07-13T06:58:53;31.20;;;16.08;;
59728;SDS011;45588;51.598;5.618;2023-07-13T07:01:18;25.05;;;10.50;;
59728;SDS011;45588;51.598;5.618;2023-07-13T07:03:44;27.63;;;16.20;;
59728;SDS011;45588;51.598;5.618;2023-07-13T07:06:13;27.23;;;16.02;;
59728;SDS011;45588;51.598;5.618;2023-07-13T07:08:40;23.58;;;10.13;;
59728;SDS011;45588;51.598;5.618;2023-07-13T07:11:05;37.03;;;15.80;;
59728;SDS011;45588;51.598;5.618;2023-07-13T07:13:31;27.60;;;13.95;;
59728;SDS011;45588;51.598;5.618;2023-07-13T07:15:56;27.43;;;14.60;;
59728;SDS011;45588;51.598;5.618;2023-07-13T07:18:21;29.80;;;17.58;;
59728;SDS011;45588;51.598;5.618;2023-07-13T07:20:46;22.80;;;13.50;;
59728;SDS011;45588;51.598;5.618;2023-07-13T07:23:11;30.05;;;17.08;;
59728;SDS011;45588;51.598;5.618;2023-07-13T07:25:37;26.42;;;9.95;;
59728;SDS011;45588;51.598;5.618;2023-07-13T07:28:07;30.33;;;16.33;;
59728;SDS011;45588;51.598;5.618;2023-07-13T07:30:32;28.70;;;15.48;;
59728;SDS011;45588;51.598;5.618;2023-07-13T07:32:57;23.90;;;9.95;;
59728;SDS011;45588;51.598;5.618;2023-07-13T07:35:23;27.55;;;16.05;;
59728;SDS011;45588;51.598;5.618;2023-07-13T07:37:48;29.23;;;16.98;;
59728;SDS011;45588;51.598;5.618;2023-07-13T07:40:13;30.93;;;16.43;;
59728;SDS011;45588;51.598;5.618;2023-07-13T07:42:39;31.58;;;12.82;;
59728;SDS011;45588;51.598;5.618;2023-07-13T07:45:04;28.33;;;15.65;;
59728;SDS011;45588;51.598;5.618;2023-07-13T07:47:29;20.00;;;10.00;;
59728;SDS011;45588;51.598;5.618;2023-07-13T07:49:55;28.92;;;15.30;;
59728;SDS011;45588;51.598;5.618;2023-07-13T07:52:20;25.60;;;14.95;;
59728;SDS011;45588;51.598;5.618;2023-07-13T07:54:45;24.23;;;13.68;;
59728;SDS011;45588;51.598;5.618;2023-07-13T07:57:10;23.65;;;9.18;;
59728;SDS011;45588;51.598;5.618;2023-07-13T07:59:36;21.35;;;13.60;;
59728;SDS011;45588;51.598;5.618;2023-07-13T08:02:01;35.92;;;15.45;;
59728;SDS011;45588;51.598;5.618;2023-07-13T08:04:27;22.65;;;13.52;;
59728;SDS011;45588;51.598;5.618;2023-07-13T08:06:53;21.65;;;9.35;;
59728;SDS011;45588;51.598;5.618;2023-07-13T08:09:18;25.15;;;10.25;;
59728;SDS011;45588;51.598;5.618;2023-07-13T08:11:43;25.35;;;14.43;;
59728;SDS011;45588;51.598;5.618;2023-07-13T08:14:08;23.17;;;12.63;;
59728;SDS011;45588;51.598;5.618;2023-07-13T08:16:34;23.88;;;11.93;;
59728;SDS011;45588;51.598;5.618;2023-07-13T08:18:59;20.23;;;10.68;;
59728;SDS011;45588;51.598;5.618;2023-07-13T08:21:25;16.38;;;7.72;;
59728;SDS011;45588;51.598;5.618;2023-07-13T08:23:50;24.48;;;12.32;;
59728;SDS011;45588;51.598;5.618;2023-07-13T08:26:15;25.77;;;11.90;;
59728;SDS011;45588;51.598;5.618;2023-07-13T08:28:41;21.25;;;10.57;;
59728;SDS011;45588;51.598;5.618;2023-07-13T08:31:07;19.55;;;10.25;;
59728;SDS011;45588;51.598;5.618;2023-07-13T08:33:33;18.60;;;9.75;;
59728;SDS011;45588;51.598;5.618;2023-07-13T08:35:59;19.13;;;10.45;;
59728;SDS011;45588;51.598;5.618;2023-07-13T08:38:24;18.40;;;10.02;;
59728;SDS011;45588;51.598;5.618;2023-07-13T08:40:52;21.10;;;10.00;;
59728;SDS011;45588;51.598;5.618;2023-07-13T08:43:19;17.13;;;8.00;;
59728;SDS011;45588;51.598;5.618;2023-07-13T08:45:46;15.77;;;9.02;;
59728;SDS011;45588;51.598;5.618;2023-07-13T08:48:23;16.40;;;9.02;;
59728;SDS011;45588;51.598;5.618;2023-07-13T08:50:51;17.00;;;8.73;;
59728;SDS011;45588;51.598;5.618;2023-07-13T08:53:19;17.65;;;8.52;;
59728;SDS011;45588;51.598;5.618;2023-07-13T08:55:44;12.75;;;8.13;;
59728;SDS011;45588;51.598;5.618;2023-07-13T08:58:13;12.23;;;8.38;;
59728;SDS011;45588;51.598;5.618;2023-07-13T09:03:25;15.50;;;9.10;;
59728;SDS011;45588;51.598;5.618;2023-07-13T09:05:54;15.05;;;8.82;;
59728;SDS011;45588;51.598;5.618;2023-07-13T09:11:01;13.82;;;8.07;;
59728;SDS011;45588;51.598;5.618;2023-07-13T09:15:54;14.45;;;7.85;;
59728;SDS011;45588;51.598;5.618;2023-07-13T09:18:29;12.00;;;7.38;;
59728;SDS011;45588;51.598;5.618;2023-07-13T09:21:14;17.35;;;8.68;;
59728;SDS011;45588;51.598;5.618;2023-07-13T09:23:40;17.67;;;8.90;;
59728;SDS011;45588;51.598;5.618;2023-07-13T09:26:22;14.15;;;8.43;;
59728;SDS011;45588;51.598;5.618;2023-07-13T09:28:55;14.65;;;9.00;;
59728;SDS011;45588;51.598;5.618;2023-07-13T09:31:36;11.35;;;8.23;;
59728;SDS011;45588;51.598;5.618;2023-07-13T09:34:02;12.27;;;8.63;;
59728;SDS011;45588;51.598;5.618;2023-07-13T09:36:28;11.60;;;7.88;;
59728;SDS011;45588;51.598;5.618;2023-07-13T09:44:10;10.70;;;6.43;;
59728;SDS011;45588;51.598;5.618;2023-07-13T09:46:36;14.40;;;7.45;;
59728;SDS011;45588;51.598;5.618;2023-07-13T09:49:02;13.85;;;7.05;;
59728;SDS011;45588;51.598;5.618;2023-07-13T09:51:27;8.63;;;5.93;;
59728;SDS011;45588;51.598;5.618;2023-07-13T09:53:53;11.73;;;6.85;;
59728;SDS011;45588;51.598;5.618;2023-07-13T09:56:23;11.57;;;6.75;;
59728;SDS011;45588;51.598;5.618;2023-07-13T09:58:48;11.77;;;7.03;;
59728;SDS011;45588;51.598;5.618;2023-07-13T10:01:14;12.80;;;7.20;;
59728;SDS011;45588;51.598;5.618;2023-07-13T10:03:43;13.40;;;6.75;;
59728;SDS011;45588;51.598;5.618;2023-07-13T10:06:17;13.60;;;7.57;;
59728;SDS011;45588;51.598;5.618;2023-07-13T10:08:46;13.25;;;6.78;;
59728;SDS011;45588;51.598;5.618;2023-07-13T10:11:18;10.02;;;6.63;;
59728;SDS011;45588;51.598;5.618;2023-07-13T10:13:45;13.23;;;7.18;;
59728;SDS011;45588;51.598;5.618;2023-07-13T10:16:11;10.65;;;6.88;;
59728;SDS011;45588;51.598;5.618;2023-07-13T10:18:42;13.63;;;6.72;;
59728;SDS011;45588;51.598;5.618;2023-07-13T10:21:15;13.00;;;6.07;;
59728;SDS011;45588;51.598;5.618;2023-07-13T10:23:42;12.70;;;6.38;;
59728;SDS011;45588;51.598;5.618;2023-07-13T10:26:09;11.48;;;6.50;;
59728;SDS011;45588;51.598;5.618;2023-07-13T10:28:37;10.07;;;5.35;;
59728;SDS011;45588;51.598;5.618;2023-07-13T10:31:04;9.68;;;5.80;;
59728;SDS011;45588;51.598;5.618;2023-07-13T10:33:32;14.10;;;5.85;;
59728;SDS011;45588;51.598;5.618;2023-07-13T10:36:05;11.15;;;5.55;;
59728;SDS011;45588;51.598;5.618;2023-07-13T10:38:37;10.68;;;5.70;;
59728;SDS011;45588;51.598;5.618;2023-07-13T10:41:03;9.02;;;5.18;;
59728;SDS011;45588;51.598;5.618;2023-07-13T10:43:51;9.68;;;5.20;;
59728;SDS011;45588;51.598;5.618;2023-07-13T10:46:16;9.40;;;4.70;;
59728;SDS011;45588;51.598;5.618;2023-07-13T10:48:42;14.68;;;5.25;;
59728;SDS011;45588;51.598;5.618;2023-07-13T10:51:08;8.35;;;4.32;;
59728;SDS011;45588;51.598;5.618;2023-07-13T10:53:36;10.02;;;4.32;;
59728;SDS011;45588;51.598;5.618;2023-07-13T10:56:03;7.53;;;3.97;;
59728;SDS011;45588;51.598;5.618;2023-07-13T10:58:38;9.02;;;4.57;;
59728;SDS011;45588;51.598;5.618;2023-07-13T11:03:28;17.57;;;5.97;;
59728;SDS011;45588;51.598;5.618;2023-07-13T11:06:08;11.18;;;6.88;;
59728;SDS011;45588;51.598;5.618;2023-07-13T11:08:38;10.15;;;6.93;;
59728;SDS011;45588;51.598;5.618;2023-07-13T11:11:03;15.65;;;7.68;;
59728;SDS011;45588;51.598;5.618;2023-07-13T11:18:49;15.18;;;7.32;;
59728;SDS011;45588;51.598;5.618;2023-07-13T11:21:16;12.45;;;7.28;;
59728;SDS011;45588;51.598;5.618;2023-07-13T11:23:42;11.80;;;7.22;;
59728;SDS011;45588;51.598;5.618;2023-07-13T11:26:37;10.70;;;7.53;;
59728;SDS011;45588;51.598;5.618;2023-07-13T11:28:53;15.50;;;7.00;;
59728;SDS011;45588;51.598;5.618;2023-07-13T11:31:18;10.90;;;6.55;;
59728;SDS011;45588;51.598;5.618;2023-07-13T11:33:54;18.45;;;7.85;;
59728;SDS011;45588;51.598;5.618;2023-07-13T11:36:21;14.55;;;7.80;;
59728;SDS011;45588;51.598;5.618;2023-07-13T11:41:34;16.85;;;8.00;;
59728;SDS011;45588;51.598;5.618;2023-07-13T11:44:13;16.52;;;7.85;;
59728;SDS011;45588;51.598;5.618;2023-07-13T11:46:43;11.13;;;7.53;;
59728;SDS011;45588;51.598;5.618;2023-07-13T11:49:11;14.30;;;8.18;;
59728;SDS011;45588;51.598;5.618;2023-07-13T11:51:38;13.38;;;8.85;;
59728;SDS011;45588;51.598;5.618;2023-07-13T11:54:05;17.13;;;10.32;;
59728;SDS011;45588;51.598;5.618;2023-07-13T11:56:31;13.55;;;9.57;;
59728;SDS011;45588;51.598;5.618;2023-07-13T11:59:04;22.25;;;10.48;;
59728;SDS011;45588;51.598;5.618;2023-07-13T12:01:30;19.13;;;10.13;;
59728;SDS011;45588;51.598;5.618;2023-07-13T12:03:57;13.18;;;8.23;;
59728;SDS011;45588;51.598;5.618;2023-07-13T12:06:33;15.05;;;9.20;;
59728;SDS011;45588;51.598;5.618;2023-07-13T12:09:02;18.27;;;8.75;;
59728;SDS011;45588;51.598;5.618;2023-07-13T12:11:29;15.18;;;8.73;;
59728;SDS011;45588;51.598;5.618;2023-07-13T12:13:54;16.40;;;10.07;;
59728;SDS011;45588;51.598;5.618;2023-07-13T12:16:29;14.95;;;9.65;;
59728;SDS011;45588;51.598;5.618;2023-07-13T12:18:55;13.48;;;9.38;;
59728;SDS011;45588;51.598;5.618;2023-07-13T12:21:22;13.20;;;8.88;;
59728;SDS011;45588;51.598;5.618;2023-07-13T12:23:49;13.48;;;9.75;;
59728;SDS011;45588;51.598;5.618;2023-07-13T12:26:15;14.85;;;9.85;;
59728;SDS011;45588;51.598;5.618;2023-07-13T12:28:47;12.10;;;8.77;;
59728;SDS011;45588;51.598;5.618;2023-07-13T12:31:23;14.30;;;8.23;;
59728;SDS011;45588;51.598;5.618;2023-07-13T12:33:49;14.18;;;9.40;;
59728;SDS011;45588;51.598;5.618;2023-07-13T12:36:20;11.23;;;7.85;;
59728;SDS011;45588;51.598;5.618;2023-07-13T12:38:46;13.18;;;7.18;;
59728;SDS011;45588;51.598;5.618;2023-07-13T12:41:12;11.18;;;6.30;;
59728;SDS011;45588;51.598;5.618;2023-07-13T12:43:37;10.35;;;6.55;;
59728;SDS011;45588;51.598;5.618;2023-07-13T12:46:04;9.85;;;6.13;;
59728;SDS011;45588;51.598;5.618;2023-07-13T12:48:30;8.02;;;4.95;;
59728;SDS011;45588;51.598;5.618;2023-07-13T12:51:02;7.40;;;4.35;;
59728;SDS011;45588;51.598;5.618;2023-07-13T12:53:28;6.30;;;4.30;;
59728;SDS011;45588;51.598;5.618;2023-07-13T12:55:56;10.18;;;4.22;;
59728;SDS011;45588;51.598;5.618;2023-07-13T13:00:50;10.80;;;4.15;;
59728;SDS011;45588;51.598;5.618;2023-07-13T13:04:01;7.70;;;4.20;;
59728;SDS011;45588;51.598;5.618;2023-07-13T13:08:45;9.00;;;4.40;;
59728;SDS011;45588;51.598;5.618;2023-07-13T13:11:11;9.40;;;4.35;;
59728;SDS011;45588;51.598;5.618;2023-07-13T13:13:36;12.93;;;4.88;;
59728;SDS011;45588;51.598;5.618;2023-07-13T13:16:10;10.50;;;4.40;;
59728;SDS011;45588;51.598;5.618;2023-07-13T13:18:36;19.15;;;5.43;;
59728;SDS011;45588;51.598;5.618;2023-07-13T13:21:02;13.47;;;4.70;;
59728;SDS011;45588;51.598;5.618;2023-07-13T13:23:28;10.52;;;4.45;;
59728;SDS011;45588;51.598;5.618;2023-07-13T13:25:53;11.43;;;4.63;;
59728;SDS011;45588;51.598;5.618;2023-07-13T13:28:19;7.97;;;4.07;;
59728;SDS011;45588;51.598;5.618;2023-07-13T13:30:45;10.98;;;4.75;;
59728;SDS011;45588;51.598;5.618;2023-07-13T13:33:12;10.73;;;4.78;;
59728;SDS011;45588;51.598;5.618;2023-07-13T13:35:39;10.02;;;4.75;;
59728;SDS011;45588;51.598;5.618;2023-07-13T13:38:11;8.48;;;4.70;;
59728;SDS011;45588;51.598;5.618;2023-07-13T13:40:39;12.30;;;5.00;;
59728;SDS011;45588;51.598;5.618;2023-07-13T13:43:08;12.27;;;5.22;;
59728;SDS011;45588;51.598;5.618;2023-07-13T13:45:38;11.98;;;5.50;;
59728;SDS011;45588;51.598;5.618;2023-07-13T13:48:04;11.05;;;5.03;;
59728;SDS011;45588;51.598;5.618;2023-07-13T13:50:30;15.32;;;5.88;;
59728;SDS011;45588;51.598;5.618;2023-07-13T13:52:55;16.00;;;6.57;;
59728;SDS011;45588;51.598;5.618;2023-07-13T13:55:21;18.73;;;6.30;;
59728;SDS011;45588;51.598;5.618;2023-07-13T13:57:46;17.92;;;6.00;;
59728;SDS011;45588;51.598;5.618;2023-07-13T14:00:13;11.30;;;5.22;;
59728;SDS011;45588;51.598;5.618;2023-07-13T14:02:39;12.52;;;5.50;;
59728;SDS011;45588;51.598;5.618;2023-07-13T14:05:06;10.13;;;5.00;;
59728;SDS011;45588;51.598;5.618;2023-07-13T14:07:32;13.95;;;5.25;;
59728;SDS011;45588;51.598;5.618;2023-07-13T14:09:58;7.63;;;4.88;;
59728;SDS011;45588;51.598;5.618;2023-07-13T14:12:25;9.55;;;5.40;;
59728;SDS011;45588;51.598;5.618;2023-07-13T14:14:53;13.18;;;5.35;;
59728;SDS011;45588;51.598;5.618;2023-07-13T14:17:22;12.30;;;5.95;;
59728;SDS011;45588;51.598;5.618;2023-07-13T14:19:49;7.18;;;4.53;;
59728;SDS011;45588;51.598;5.618;2023-07-13T14:22:22;9.60;;;4.72;;
59728;SDS011;45588;51.598;5.618;2023-07-13T14:24:47;7.35;;;4.47;;
59728;SDS011;45588;51.598;5.618;2023-07-13T14:27:12;6.72;;;4.05;;
59728;SDS011;45588;51.598;5.618;2023-07-13T14:29:38;7.43;;;4.32;;
59728;SDS011;45588;51.598;5.618;2023-07-13T14:32:03;5.53;;;4.22;;
59728;SDS011;45588;51.598;5.618;2023-07-13T14:34:30;7.78;;;4.40;;
59728;SDS011;45588;51.598;5.618;2023-07-13T14:36:55;6.35;;;4.60;;
59728;SDS011;45588;51.598;5.618;2023-07-13T14:39:22;7.22;;;4.70;;
59728;SDS011;45588;51.598;5.618;2023-07-13T14:41:49;5.93;;;4.63;;
59728;SDS011;45588;51.598;5.618;2023-07-13T14:44:16;6.10;;;4.53;;
59728;SDS011;45588;51.598;5.618;2023-07-13T14:46:42;11.20;;;4.93;;
59728;SDS011;45588;51.598;5.618;2023-07-13T14:49:50;7.95;;;4.65;;
59728;SDS011;45588;51.598;5.618;2023-07-13T14:51:56;6.60;;;4.78;;
59728;SDS011;45588;51.598;5.618;2023-07-13T14:54:22;7.90;;;4.78;;
59728;SDS011;45588;51.598;5.618;2023-07-13T14:56:47;7.72;;;4.28;;
59728;SDS011;45588;51.598;5.618;2023-07-13T14:59:13;8.77;;;4.47;;
59728;SDS011;45588;51.598;5.618;2023-07-13T15:01:38;11.23;;;5.28;;
59728;SDS011;45588;51.598;5.618;2023-07-13T15:04:04;7.97;;;4.72;;